Main page
METAR-TAF:

METAR-TAF

Airports :

Essex County Airport

Caldwell, New Jersey, United States

latitude: 40-52-35N, longitude: 074-16-59W, elevation: 171 ft

Current weather observation

The report was made 52 minutes ago, at 16:53 UTC
Wind 23 mph from the West/Northwest with gusts up to 35 mph
Temperature 39°F
Humidity 44%
Pressure 29.56 in. Hg
Visibility: 10 miles
Broken clouds at a height of 4700 ft
Overcast at a height of 5500 ft

METAR: KCDW 271653Z 29020G30KT 10SM BKN047 OVC055 04/M07 A2956 RMK AO2 PK WND 30033/1610 SLP017 T00441067

Time: 12:45 (17:45 UTC)


TAF: missing

Weather observations and forecasts of more than 4000 airports (METAR and TAF reports).

The available stations are represented by yellow and red dots on the map.

Hover mouse over dot to see the name of the station.

Then click to see weather observations and forecasts.

To change the map : click on the green buttons with a black cross to zoom in, on the green button with a dash to zoom out, or on the green arrows for adjacent maps.


METAR-TAF: